Airfield :







YOU CAN JOIN US ON...

 
LOGIN :

Register | Disclaimer

   EN    FR    IT 

 









Legend :    VFR   Marginal VFR   IFR   Intensive IFR   Very Intensive IFR
Visi :
Ceiling :
>= 8 km
>= 3000ft
5 to 8 km
1000 to 3000 ft
1500m to 5 km
500 to 1000 ft
800 to 1500m
200 to 500 ft
< 800m
< 200 ft
Symbols :   Thunderstorms  Fog  Heavy snow  Heavy precipitations  Wind > 20 kt






- Airport Elevation : 1166 ft


KMPV - Edward F Knapp State

CURRENT METAR :
  • 070251Z AUTO 18016G21KT 10SM -RA SCT018 OVC026 08/06 A3032 RMK AO2 RAB03 SLP276 P0000 60000 T00830056 58005

EXPIRED METARs :
  • 070151Z AUTO 16015G21KT 10SM BKN018 BKN027 OVC050 09/06 A3033 RMK AO2 RAE36 SLP279 P0000 T00940056
  • 070126Z AUTO 17013G18KT 10SM -RA FEW018 BKN023 OVC048 09/06 A3033 RMK AO2 P0000 T00940056
  • 070051Z AUTO 16013G17KT 10SM -RA FEW018 SCT027 OVC033 09/06 A3034 RMK AO2 RAB25 SLP281 P0000 T00940056

TAF KMPV
Valid from the 07 at 02:00 until the 08 at 00:00 UTC


070215Z 0702/0724 17012G20KT P6SM VCSH OVC020 WS020/17045KT
FM070700 18007KT P6SM -RA OVC018 WS020/16045KT
FM071200 18006KT P6SM VCSH OVC022 WS020/17040KT
FM071800 VRB03KT P6SM OVC012
KZBW FIR / North America



MET'MAP, your aeronautical weather chart ! - Copyright ORBIFLY December 2007 - Disclaimer

ORBIFLY MET'MAP TEAM :

Programming & Development : Alexandra Zaïnal
Original concept : Baudouin d'Aumeries
Technical & hardware support : Manuel Goepfert
Assistance : Marc-Olivier Méhu




SOURCES & CREDITS :

   NOAA